createdAt,value
2018-06-30T00:01:08.135Z,22.67
2018-06-30T00:03:41.985Z,22.60
2018-06-30T00:06:10.101Z,20.87
2018-06-30T00:08:38.585Z,22.80
2018-06-30T00:11:06.702Z,22.23
2018-06-30T00:13:35.251Z,21.00
2018-06-30T00:16:03.477Z,22.57
2018-06-30T00:18:31.917Z,21.80
2018-06-30T00:21:00.029Z,21.47
2018-06-30T00:23:28.190Z,21.43
2018-06-30T00:25:56.610Z,19.37
2018-06-30T00:28:25.074Z,23.13
2018-06-30T00:30:53.190Z,21.13
2018-06-30T00:33:21.330Z,21.23
2018-06-30T00:35:49.769Z,19.70
2018-06-30T00:38:18.249Z,22.30
2018-06-30T00:40:46.710Z,22.83
2018-06-30T00:43:15.170Z,24.70
2018-06-30T00:45:43.650Z,24.10
2018-06-30T00:48:12.144Z,22.80
2018-06-30T00:50:40.284Z,21.83
2018-06-30T00:53:08.404Z,22.07
2018-06-30T00:55:36.852Z,20.10
2018-06-30T00:58:05.348Z,18.40
2018-06-30T01:00:33.591Z,19.20
2018-06-30T01:03:01.706Z,20.47
2018-06-30T01:05:30.221Z,20.27
2018-06-30T01:07:58.686Z,22.23
2018-06-30T01:10:27.174Z,24.80
2018-06-30T01:12:55.646Z,22.30
2018-06-30T01:15:24.178Z,22.57
2018-06-30T01:17:52.297Z,20.53
2018-06-30T01:20:20.452Z,21.00
2018-06-30T01:22:48.675Z,21.00
2018-06-30T01:25:16.776Z,20.17
2018-06-30T01:27:44.889Z,19.37
2018-06-30T01:30:13.155Z,19.13
2018-06-30T01:32:42.057Z,20.60
2018-06-30T01:35:10.897Z,19.33
2018-06-30T01:37:40.022Z,18.37
2018-06-30T01:40:08.249Z,19.80
2018-06-30T01:42:36.908Z,20.90
2018-06-30T01:45:06.093Z,20.77
2018-06-30T01:47:34.528Z,19.33
2018-06-30T01:50:03.072Z,20.70
2018-06-30T01:52:31.205Z,19.30
2018-06-30T01:54:59.654Z,19.33
2018-06-30T01:57:27.778Z,20.70
2018-06-30T01:59:56.212Z,18.93
2018-06-30T02:02:24.716Z,18.50
2018-06-30T02:04:53.157Z,20.60
2018-06-30T02:07:21.282Z,18.63
2018-06-30T02:09:49.752Z,18.80
2018-06-30T02:12:17.876Z,18.47
2018-06-30T02:14:46.010Z,19.27
2018-06-30T02:17:14.118Z,20.60
2018-06-30T02:19:42.220Z,17.70
2018-06-30T02:22:10.661Z,19.77
2018-06-30T02:24:38.848Z,17.90
2018-06-30T02:27:07.367Z,19.90
2018-06-30T02:29:35.819Z,19.70
2018-06-30T02:32:04.254Z,20.67
2018-06-30T02:34:32.680Z,19.60
2018-06-30T02:37:01.158Z,19.00
2018-06-30T02:39:29.632Z,19.07
2018-06-30T02:41:58.104Z,20.77
2018-06-30T02:44:26.266Z,19.90
2018-06-30T02:46:54.803Z,18.30
2018-06-30T02:49:22.930Z,18.30
2018-06-30T02:51:51.127Z,20.50
2018-06-30T02:54:21.981Z,16.70
2018-06-30T02:56:50.147Z,18.83
2018-06-30T02:59:18.303Z,18.73
2018-06-30T03:01:46.410Z,18.93
2018-06-30T03:04:14.568Z,18.07
2018-06-30T03:06:43.049Z,19.00
2018-06-30T03:09:11.407Z,19.43
2018-06-30T03:11:40.264Z,17.80
2018-06-30T03:14:08.719Z,17.43
2018-06-30T03:16:36.847Z,15.37
2018-06-30T03:19:05.291Z,16.93
2018-06-30T03:21:33.439Z,14.07
2018-06-30T03:24:01.543Z,14.27
2018-06-30T03:26:29.689Z,15.30
2018-06-30T03:28:57.946Z,15.93
2018-06-30T03:31:26.127Z,15.53
2018-06-30T03:33:54.197Z,16.17
2018-06-30T03:36:23.041Z,15.50
2018-06-30T03:38:51.181Z,16.70
2018-06-30T03:41:19.767Z,17.80
2018-06-30T03:43:48.179Z,16.87
2018-06-30T03:46:16.357Z,16.17
2018-06-30T03:48:44.485Z,16.40
2018-06-30T03:51:13.011Z,16.67
2018-06-30T03:53:41.148Z,17.70
2018-06-30T03:56:09.273Z,16.70
2018-06-30T03:58:37.407Z,15.37
2018-06-30T04:01:05.707Z,16.17
2018-06-30T04:03:34.222Z,15.97
2018-06-30T04:06:02.754Z,17.13
2018-06-30T04:08:31.234Z,19.13
2018-06-30T04:10:59.682Z,17.00
2018-06-30T04:13:27.803Z,18.30
2018-06-30T04:15:56.283Z,17.80
2018-06-30T04:18:24.755Z,17.67
2018-06-30T04:20:53.453Z,17.20
2018-06-30T04:23:21.641Z,18.70
2018-06-30T04:25:50.118Z,17.80
2018-06-30T04:28:18.428Z,17.83
2018-06-30T04:30:46.949Z,19.83
2018-06-30T04:33:15.239Z,17.90
2018-06-30T04:35:43.455Z,18.07
2018-06-30T04:38:11.910Z,19.07
2018-06-30T04:40:40.590Z,16.87
2018-06-30T04:43:08.735Z,18.67
2018-06-30T04:45:36.881Z,17.67
2018-06-30T04:48:05.166Z,19.83
2018-06-30T04:50:33.728Z,18.03
2018-06-30T04:53:01.854Z,19.00
2018-06-30T04:55:30.446Z,18.20
2018-06-30T04:57:58.899Z,20.70
2018-06-30T05:00:27.351Z,19.40
2018-06-30T05:02:55.492Z,18.93
2018-06-30T05:05:24.008Z,18.67
2018-06-30T05:07:53.016Z,20.90
2018-06-30T05:10:21.220Z,20.60
2018-06-30T05:12:49.702Z,20.90
2018-06-30T05:15:18.078Z,20.00
2018-06-30T05:17:46.603Z,21.40
2018-06-30T05:20:15.156Z,20.67
2018-06-30T05:22:43.716Z,21.20
2018-06-30T05:25:12.190Z,20.93
2018-06-30T05:27:40.661Z,20.40
2018-06-30T05:30:09.433Z,19.03
2018-06-30T05:32:38.474Z,19.50
2018-06-30T05:35:06.967Z,18.83
2018-06-30T05:37:35.220Z,17.80
2018-06-30T05:40:04.097Z,18.30
2018-06-30T05:42:32.742Z,18.47
2018-06-30T05:45:01.200Z,17.43
2018-06-30T05:47:29.696Z,17.77
2018-06-30T05:49:57.871Z,19.13
2018-06-30T05:52:26.321Z,18.43
2018-06-30T05:54:54.828Z,18.30
2018-06-30T05:57:23.395Z,18.60
2018-06-30T05:59:51.858Z,17.40
2018-06-30T06:02:20.424Z,17.90
2018-06-30T06:04:48.852Z,16.77
2018-06-30T06:07:17.380Z,16.97
2018-06-30T06:09:46.050Z,18.73
2018-06-30T06:12:14.572Z,17.97
2018-06-30T06:14:43.314Z,18.30
2018-06-30T06:17:11.466Z,16.77
2018-06-30T06:19:39.990Z,18.43
2018-06-30T06:22:08.414Z,17.73
2018-06-30T06:24:36.560Z,17.67
2018-06-30T06:27:04.690Z,16.20
2018-06-30T06:29:33.129Z,18.23
2018-06-30T06:32:01.606Z,15.97
2018-06-30T06:34:29.773Z,15.43
2018-06-30T06:36:58.187Z,15.23
2018-06-30T06:39:26.358Z,15.17
2018-06-30T06:41:54.846Z,16.03
2018-06-30T06:44:23.630Z,16.30
2018-06-30T06:46:51.864Z,16.80
2018-06-30T06:49:20.606Z,16.93
2018-06-30T06:51:49.150Z,18.00
2018-06-30T06:54:17.248Z,18.33
2018-06-30T06:56:45.801Z,18.43
2018-06-30T06:59:14.437Z,20.10
2018-06-30T07:01:42.910Z,18.30
2018-06-30T07:04:11.456Z,18.43
2018-06-30T07:06:40.063Z,20.33
2018-06-30T07:09:09.919Z,17.30
2018-06-30T07:11:39.021Z,20.03
2018-06-30T07:14:07.596Z,19.10
2018-06-30T07:16:36.124Z,20.23
2018-06-30T07:19:04.291Z,19.40
2018-06-30T07:21:32.658Z,20.03
2018-06-30T07:24:01.256Z,20.90
2018-06-30T07:26:29.307Z,20.80
2018-06-30T07:28:58.053Z,20.20
2018-06-30T07:31:26.841Z,20.83
2018-06-30T07:33:55.299Z,21.60
2018-06-30T07:36:23.766Z,23.00
2018-06-30T07:38:52.791Z,23.20
2018-06-30T07:41:21.328Z,24.53
2018-06-30T07:43:49.843Z,23.90
2018-06-30T07:46:17.978Z,24.27
2018-06-30T07:48:46.183Z,23.43
2018-06-30T07:51:14.712Z,22.43
2018-06-30T07:53:43.212Z,21.93
2018-06-30T07:56:12.569Z,22.97
2018-06-30T07:58:41.034Z,21.57
2018-06-30T08:01:09.237Z,22.63
2018-06-30T08:03:37.705Z,20.73
2018-06-30T08:06:05.887Z,23.87
2018-06-30T08:08:34.028Z,23.00
2018-06-30T08:11:02.152Z,23.20
2018-06-30T08:13:30.612Z,22.90
2018-06-30T08:15:59.234Z,24.67
2018-06-30T08:18:27.660Z,24.60
2018-06-30T08:20:56.141Z,26.07
2018-06-30T08:23:24.770Z,20.53
2018-06-30T08:25:52.986Z,21.80
2018-06-30T08:28:21.627Z,22.30
2018-06-30T08:30:49.842Z,21.70
2018-06-30T08:33:17.986Z,20.80
2018-06-30T08:35:46.622Z,21.00
2018-06-30T08:38:15.264Z,19.10
2018-06-30T08:40:43.797Z,17.90
2018-06-30T08:43:12.340Z,18.73
2018-06-30T08:45:40.819Z,18.30
2018-06-30T08:48:09.005Z,18.30
2018-06-30T08:50:37.619Z,16.87
2018-06-30T08:53:05.755Z,19.47
2018-06-30T08:55:34.224Z,18.63
2018-06-30T08:58:02.854Z,17.17
2018-06-30T09:00:31.274Z,17.67
2018-06-30T09:02:59.732Z,20.50
2018-06-30T09:05:28.315Z,19.60
2018-06-30T09:07:56.492Z,19.20
2018-06-30T09:10:25.088Z,19.83
2018-06-30T09:12:54.912Z,21.50
2018-06-30T09:15:23.457Z,19.30
2018-06-30T09:17:51.951Z,19.23
2018-06-30T09:20:21.143Z,18.90
2018-06-30T09:22:51.824Z,16.40
2018-06-30T09:25:20.582Z,19.13
2018-06-30T09:27:49.089Z,18.60
2018-06-30T09:30:17.565Z,17.80
2018-06-30T09:32:46.013Z,19.10
2018-06-30T09:35:15.156Z,18.60
2018-06-30T09:37:43.657Z,17.23
2018-06-30T09:40:11.787Z,16.03
2018-06-30T09:42:39.934Z,15.70
2018-06-30T09:45:08.409Z,16.80
2018-06-30T09:47:36.906Z,15.87
2018-06-30T09:50:05.105Z,16.57
2018-06-30T09:52:33.638Z,15.50
2018-06-30T09:55:01.920Z,17.10
2018-06-30T09:57:31.146Z,16.40
2018-06-30T09:59:59.728Z,14.47
2018-06-30T10:02:28.757Z,15.77
2018-06-30T10:04:57.358Z,15.10
2018-06-30T10:07:26.506Z,12.60
2018-06-30T10:09:55.097Z,11.77
2018-06-30T10:12:23.664Z,11.27
2018-06-30T10:14:51.892Z,10.50
2018-06-30T10:17:20.566Z,9.87
2018-06-30T10:19:49.158Z,8.83
2018-06-30T10:22:17.307Z,8.93
2018-06-30T10:24:46.742Z,8.10
2018-06-30T10:27:15.193Z,8.77
2018-06-30T10:29:44.499Z,9.50
2018-06-30T10:32:13.706Z,9.30
2018-06-30T10:34:42.832Z,8.77
2018-06-30T10:37:12.066Z,9.73
2018-06-30T10:39:41.168Z,10.77
2018-06-30T10:42:09.920Z,10.10
2018-06-30T10:44:39.165Z,9.60
2018-06-30T10:47:08.059Z,8.27
2018-06-30T10:49:36.552Z,10.03
2018-06-30T10:52:05.041Z,9.03
2018-06-30T10:54:33.519Z,8.83
2018-06-30T10:57:02.073Z,10.00
2018-06-30T10:59:31.002Z,10.00
2018-06-30T11:01:59.222Z,9.37
2018-06-30T11:04:27.667Z,9.30
2018-06-30T11:06:56.891Z,9.53
2018-06-30T11:09:26.726Z,9.37
2018-06-30T11:11:54.837Z,8.27
2018-06-30T11:14:22.985Z,8.20
2018-06-30T11:16:52.167Z,8.00
2018-06-30T11:19:21.613Z,7.57
2018-06-30T11:21:50.663Z,8.90
2018-06-30T11:24:18.797Z,8.10
2018-06-30T11:26:47.429Z,9.47
2018-06-30T11:29:16.952Z,7.77
2018-06-30T11:31:45.373Z,7.93
2018-06-30T11:34:14.431Z,8.00
2018-06-30T11:36:42.703Z,7.83
2018-06-30T11:39:13.305Z,7.70
2018-06-30T11:41:42.523Z,7.53
2018-06-30T11:44:11.199Z,7.40
2018-06-30T11:46:40.449Z,6.93
2018-06-30T11:49:09.065Z,7.53
2018-06-30T11:51:38.709Z,7.20
2018-06-30T11:54:07.967Z,6.53
2018-06-30T11:56:36.985Z,7.70
2018-06-30T11:59:05.577Z,6.80
2018-06-30T12:01:34.107Z,6.03
2018-06-30T12:04:02.593Z,6.30
2018-06-30T12:06:31.743Z,6.60
2018-06-30T12:09:00.235Z,7.20
2018-06-30T12:11:28.803Z,7.03
2018-06-30T12:13:57.287Z,5.90
2018-06-30T12:16:25.833Z,7.37
2018-06-30T12:18:53.964Z,6.83
2018-06-30T12:21:23.171Z,6.23
2018-06-30T12:23:51.770Z,6.73
2018-06-30T12:26:20.739Z,7.83
2018-06-30T12:28:49.195Z,7.00
2018-06-30T12:31:17.680Z,7.57
2018-06-30T12:33:46.102Z,8.10
2018-06-30T12:36:14.280Z,7.80
2018-06-30T12:38:42.736Z,6.90
2018-06-30T12:41:11.486Z,6.40
2018-06-30T12:43:40.456Z,7.13
2018-06-30T12:46:09.273Z,6.93
2018-06-30T12:48:37.530Z,7.60
2018-06-30T12:51:07.148Z,7.77
2018-06-30T12:53:35.680Z,8.17
2018-06-30T12:56:04.659Z,7.70
2018-06-30T12:58:33.205Z,7.40
2018-06-30T13:01:01.819Z,6.60
2018-06-30T13:03:31.115Z,7.10
2018-06-30T13:06:01.158Z,7.20
2018-06-30T13:08:29.724Z,7.57
2018-06-30T13:10:57.966Z,6.90
2018-06-30T13:13:27.618Z,7.10
2018-06-30T13:15:55.774Z,7.03
2018-06-30T13:18:24.223Z,6.47
2018-06-30T13:20:52.687Z,6.87
2018-06-30T13:23:21.282Z,6.30
2018-06-30T13:25:50.025Z,7.10
2018-06-30T13:28:19.198Z,7.77
2018-06-30T13:30:47.698Z,7.17
2018-06-30T13:33:16.354Z,6.67
2018-06-30T13:35:46.841Z,6.60
2018-06-30T13:38:15.359Z,6.23
2018-06-30T13:40:43.976Z,5.83
2018-06-30T13:43:13.711Z,6.20
2018-06-30T13:45:42.848Z,6.13
2018-06-30T13:48:11.014Z,6.23
2018-06-30T13:50:39.778Z,7.27
2018-06-30T13:53:08.501Z,7.20
2018-06-30T13:55:36.919Z,7.00
2018-06-30T13:58:05.490Z,7.40
2018-06-30T14:00:34.242Z,6.20
2018-06-30T14:03:02.924Z,6.43
2018-06-30T14:05:32.345Z,6.20
2018-06-30T14:08:00.897Z,7.30
2018-06-30T14:10:29.872Z,6.63
2018-06-30T14:12:58.636Z,6.30
2018-06-30T14:15:26.804Z,6.40
2018-06-30T14:17:55.352Z,6.27
2018-06-30T14:20:25.404Z,6.13
2018-06-30T14:22:53.792Z,6.73
2018-06-30T14:25:22.337Z,5.70
2018-06-30T14:27:51.809Z,5.10
2018-06-30T14:30:20.561Z,5.93
2018-06-30T14:32:49.227Z,5.20
2018-06-30T14:35:18.457Z,5.60
2018-06-30T14:37:47.027Z,5.53
2018-06-30T14:40:16.261Z,5.40
2018-06-30T14:42:45.439Z,5.20
2018-06-30T14:45:15.511Z,5.20
2018-06-30T14:47:44.088Z,6.00
2018-06-30T14:50:13.698Z,4.60
2018-06-30T14:52:43.173Z,4.67
2018-06-30T14:55:11.764Z,5.23
2018-06-30T14:57:40.414Z,4.30
2018-06-30T15:00:10.303Z,4.50
2018-06-30T15:02:39.545Z,4.27
2018-06-30T15:05:09.430Z,3.97
2018-06-30T15:07:37.572Z,4.53
2018-06-30T15:10:06.340Z,4.30
2018-06-30T15:12:35.239Z,3.73
2018-06-30T15:15:04.503Z,3.87
2018-06-30T15:17:32.995Z,4.30
2018-06-30T15:20:01.133Z,3.53
2018-06-30T15:22:29.809Z,3.73
2018-06-30T15:24:58.839Z,4.00
2018-06-30T15:27:27.643Z,3.80
2018-06-30T15:29:56.323Z,3.50
2018-06-30T15:32:25.561Z,3.53
2018-06-30T15:34:54.456Z,3.73
2018-06-30T15:37:23.423Z,10.40
2018-06-30T15:39:51.937Z,5.37
2018-06-30T15:42:20.321Z,3.00
2018-06-30T15:44:49.413Z,3.23
2018-06-30T15:47:18.019Z,3.10
2018-06-30T15:49:46.420Z,4.87
2018-06-30T15:52:15.029Z,3.50
2018-06-30T15:54:44.552Z,3.00
2018-06-30T15:57:14.814Z,2.40
2018-06-30T15:59:43.288Z,2.80
2018-06-30T16:02:11.834Z,2.67
2018-06-30T16:04:40.870Z,2.80
2018-06-30T16:07:12.550Z,2.83
2018-06-30T16:09:41.080Z,4.33
2018-06-30T16:12:09.277Z,2.40
2018-06-30T16:14:38.335Z,2.40
2018-06-30T16:17:06.874Z,2.70
2018-06-30T16:19:35.911Z,2.70
2018-06-30T16:22:04.433Z,2.40
2018-06-30T16:24:33.962Z,2.10
2018-06-30T16:27:04.234Z,2.27
2018-06-30T16:29:32.998Z,2.30
2018-06-30T16:32:02.222Z,1.87
2018-06-30T16:34:30.662Z,2.20
2018-06-30T16:36:59.200Z,2.33
2018-06-30T16:39:27.863Z,2.13
2018-06-30T16:41:57.200Z,2.37
2018-06-30T16:44:26.473Z,2.90
2018-06-30T16:46:55.260Z,2.90
2018-06-30T16:49:23.740Z,2.40
2018-06-30T16:51:52.838Z,2.57
2018-06-30T16:54:21.811Z,2.50
2018-06-30T16:56:50.266Z,2.00
2018-06-30T16:59:18.424Z,2.53
2018-06-30T17:01:46.837Z,2.60
2018-06-30T17:04:14.989Z,2.67
2018-06-30T17:06:43.630Z,2.30
2018-06-30T17:09:13.997Z,2.40
2018-06-30T17:11:42.470Z,2.53
2018-06-30T17:14:11.306Z,2.70
2018-06-30T17:16:39.736Z,2.40
2018-06-30T17:19:07.856Z,2.73
2018-06-30T17:21:36.713Z,3.27
2018-06-30T17:24:06.216Z,2.60
2018-06-30T17:26:34.995Z,2.40
2018-06-30T17:29:03.514Z,2.07
2018-06-30T17:31:32.028Z,2.40
2018-06-30T17:34:00.164Z,2.60
2018-06-30T17:36:28.536Z,2.40
2018-06-30T17:38:57.027Z,2.03
2018-06-30T17:41:25.487Z,2.07
2018-06-30T17:43:54.206Z,2.20
2018-06-30T17:46:22.463Z,2.40
2018-06-30T17:48:50.984Z,2.70
2018-06-30T17:51:19.443Z,2.30
2018-06-30T17:53:47.939Z,2.00
2018-06-30T17:56:16.078Z,1.83
2018-06-30T17:58:44.596Z,2.03
2018-06-30T18:01:13.058Z,2.30
2018-06-30T18:03:41.808Z,1.93
2018-06-30T18:06:09.989Z,2.00
2018-06-30T18:08:38.470Z,2.13
2018-06-30T18:11:06.746Z,2.17
2018-06-30T18:13:35.178Z,1.80
2018-06-30T18:16:03.363Z,1.70
2018-06-30T18:18:31.831Z,1.83
2018-06-30T18:21:00.384Z,1.80
2018-06-30T18:23:28.574Z,2.30
2018-06-30T18:25:57.176Z,2.17
2018-06-30T18:28:25.427Z,2.03
2018-06-30T18:30:54.030Z,2.00
2018-06-30T18:33:22.575Z,1.70
2018-06-30T18:35:51.311Z,2.20
2018-06-30T18:38:19.850Z,2.10
2018-06-30T18:40:48.376Z,2.13
2018-06-30T18:43:18.039Z,2.10
2018-06-30T18:45:46.545Z,2.47
2018-06-30T18:48:14.689Z,1.80
2018-06-30T18:50:42.966Z,1.83
2018-06-30T18:53:11.803Z,1.93
2018-06-30T18:55:40.470Z,2.00
2018-06-30T18:58:10.198Z,2.13
2018-06-30T19:00:38.769Z,1.90
2018-06-30T19:03:07.573Z,2.00
2018-06-30T19:05:35.948Z,1.93
2018-06-30T19:08:05.759Z,1.90
2018-06-30T19:10:34.002Z,2.37
2018-06-30T19:13:04.864Z,1.60
2018-06-30T19:15:33.501Z,1.67
2018-06-30T19:18:02.017Z,1.80
2018-06-30T19:20:30.688Z,1.80
2018-06-30T19:22:59.241Z,2.17
2018-06-30T19:25:27.667Z,2.10
2018-06-30T19:27:55.894Z,1.67
2018-06-30T19:30:24.150Z,1.90
2018-06-30T19:32:52.302Z,1.93
2018-06-30T19:35:20.556Z,1.60
2018-06-30T19:37:48.805Z,1.50
2018-06-30T19:40:16.984Z,2.20
2018-06-30T19:42:45.655Z,1.57
2018-06-30T19:45:14.137Z,1.50
2018-06-30T19:47:42.744Z,1.97
2018-06-30T19:50:11.471Z,1.73
2018-06-30T19:52:39.750Z,1.80
2018-06-30T19:55:07.912Z,1.70
2018-06-30T19:57:36.144Z,1.90
2018-06-30T20:00:04.908Z,1.67
2018-06-30T20:02:33.415Z,1.70
2018-06-30T20:05:01.936Z,1.70
2018-06-30T20:07:34.421Z,1.53
2018-06-30T20:10:03.342Z,1.80
2018-06-30T20:12:32.346Z,1.67
2018-06-30T20:15:00.555Z,1.77
2018-06-30T20:17:29.041Z,1.90
2018-06-30T20:19:57.412Z,1.90
2018-06-30T20:22:25.965Z,1.70
2018-06-30T20:24:54.597Z,1.97
2018-06-30T20:27:23.310Z,1.70
2018-06-30T20:29:51.815Z,1.80
2018-06-30T20:32:20.020Z,1.40
2018-06-30T20:34:48.650Z,1.50
2018-06-30T20:37:18.061Z,1.77
2018-06-30T20:39:46.697Z,2.90
2018-06-30T20:42:14.737Z,2.30
2018-06-30T20:44:42.963Z,3.80
2018-06-30T20:47:12.244Z,2.17
2018-06-30T20:49:40.763Z,1.87
2018-06-30T20:52:09.350Z,2.33
2018-06-30T20:54:37.896Z,2.20
2018-06-30T20:57:06.348Z,1.90
2018-06-30T20:59:34.597Z,2.00
2018-06-30T21:02:04.177Z,2.10
2018-06-30T21:04:32.624Z,1.90
2018-06-30T21:07:00.933Z,2.00
2018-06-30T21:09:29.194Z,1.90
2018-06-30T21:11:57.993Z,2.20
2018-06-30T21:14:26.422Z,2.33
2018-06-30T21:16:55.169Z,1.80
2018-06-30T21:19:23.384Z,2.00
2018-06-30T21:21:52.061Z,2.20
2018-06-30T21:24:21.036Z,1.80
2018-06-30T21:26:49.571Z,1.93
2018-06-30T21:29:18.098Z,2.03
2018-06-30T21:31:46.286Z,2.70
2018-06-30T21:34:14.736Z,2.00
2018-06-30T21:36:43.534Z,1.90
2018-06-30T21:39:12.951Z,2.40
2018-06-30T21:41:41.958Z,2.00
2018-06-30T21:44:11.263Z,2.00
2018-06-30T21:46:39.776Z,2.07
2018-06-30T21:49:07.935Z,1.83
2018-06-30T21:51:36.398Z,1.43
2018-06-30T21:54:04.865Z,2.10
2018-06-30T21:56:33.032Z,2.27
2018-06-30T21:59:01.560Z,1.47
2018-06-30T22:01:29.748Z,2.10
2018-06-30T22:03:58.337Z,2.10
2018-06-30T22:06:26.879Z,2.30
2018-06-30T22:08:55.366Z,2.27
2018-06-30T22:11:23.804Z,2.20
2018-06-30T22:13:51.992Z,2.73
2018-06-30T22:16:20.123Z,2.73
2018-06-30T22:18:48.224Z,2.33
2018-06-30T22:21:16.662Z,2.50
2018-06-30T22:23:45.161Z,2.40
2018-06-30T22:26:13.282Z,2.30
2018-06-30T22:28:41.488Z,2.00
2018-06-30T22:31:10.033Z,2.33
2018-06-30T22:33:38.182Z,2.07
2018-06-30T22:36:06.624Z,2.40
2018-06-30T22:38:35.092Z,1.97
2018-06-30T22:41:03.252Z,2.17
2018-06-30T22:43:31.387Z,2.17
2018-06-30T22:45:59.544Z,2.20
2018-06-30T22:48:27.712Z,2.43
2018-06-30T22:50:56.218Z,2.20
2018-06-30T22:53:24.364Z,1.77
2018-06-30T22:55:52.541Z,2.10
2018-06-30T22:58:21.095Z,2.20
2018-06-30T23:00:49.296Z,2.40
2018-06-30T23:03:17.773Z,2.10
2018-06-30T23:05:46.259Z,2.30
2018-06-30T23:08:14.713Z,2.10
2018-06-30T23:10:42.924Z,2.17
2018-06-30T23:13:11.399Z,2.47
2018-06-30T23:15:40.007Z,2.50
2018-06-30T23:18:08.458Z,2.50
2018-06-30T23:20:36.620Z,2.30
2018-06-30T23:23:12.139Z,2.07
2018-06-30T23:25:41.348Z,2.33
2018-06-30T23:28:09.828Z,2.07
2018-06-30T23:30:38.691Z,2.17
2018-06-30T23:33:07.136Z,2.37
2018-06-30T23:35:35.669Z,2.40
2018-06-30T23:38:04.566Z,2.20
2018-06-30T23:40:32.750Z,2.37
2018-06-30T23:43:00.902Z,2.07
2018-06-30T23:45:29.102Z,2.40
2018-06-30T23:47:57.551Z,2.30
2018-06-30T23:50:25.717Z,2.00
2018-06-30T23:52:54.213Z,2.37
2018-06-30T23:55:22.714Z,2.13
2018-06-30T23:57:50.935Z,2.10
